createdAt,value
2023-04-23T00:01:19.336Z,72.43
2023-04-23T00:03:47.303Z,72.80
2023-04-23T00:06:15.049Z,72.67
2023-04-23T00:08:42.664Z,72.74
2023-04-23T00:11:10.927Z,72.53
2023-04-23T00:13:38.582Z,72.52
2023-04-23T00:16:06.190Z,72.31
2023-04-23T00:18:33.908Z,72.74
2023-04-23T00:21:01.663Z,72.45
2023-04-23T00:23:29.671Z,72.91
2023-04-23T00:25:57.789Z,72.64
2023-04-23T00:28:25.443Z,72.49
2023-04-23T00:30:53.097Z,72.47
2023-04-23T00:33:20.824Z,72.82
2023-04-23T00:35:49.110Z,73.00
2023-04-23T00:38:16.929Z,72.73
2023-04-23T00:40:44.646Z,72.91
2023-04-23T00:43:12.319Z,72.45
2023-04-23T00:45:39.948Z,72.93
2023-04-23T00:48:09.238Z,72.85
2023-04-23T00:50:37.397Z,72.44
2023-04-23T00:53:04.985Z,72.85
2023-04-23T00:55:32.700Z,72.45
2023-04-23T00:58:00.912Z,72.84
2023-04-23T01:00:28.906Z,72.57
2023-04-23T01:02:58.483Z,72.92
2023-04-23T01:05:26.303Z,73.04
2023-04-23T01:07:53.929Z,72.42
2023-04-23T01:10:22.027Z,72.96
2023-04-23T01:12:50.228Z,72.59
2023-04-23T01:15:18.021Z,72.61
2023-04-23T01:17:45.696Z,72.57
2023-04-23T01:20:13.315Z,73.11
2023-04-23T01:22:40.893Z,72.54
2023-04-23T01:25:09.514Z,72.67
2023-04-23T01:27:37.392Z,72.33
2023-04-23T01:30:06.122Z,73.01
2023-04-23T01:32:33.778Z,72.62
2023-04-23T01:35:01.431Z,72.11
2023-04-23T01:37:29.646Z,72.23
2023-04-23T01:39:57.342Z,72.26
2023-04-23T01:42:24.991Z,72.16
2023-04-23T01:44:52.593Z,72.35
2023-04-23T01:47:20.271Z,72.26
2023-04-23T01:49:48.180Z,72.35
2023-04-23T01:52:15.812Z,72.49
2023-04-23T01:54:44.136Z,72.17
2023-04-23T01:57:11.857Z,71.89
2023-04-23T01:59:39.512Z,71.86
2023-04-23T02:02:11.199Z,72.48
2023-04-23T02:04:39.063Z,72.24
2023-04-23T02:07:06.898Z,72.11
2023-04-23T02:09:34.647Z,72.54
2023-04-23T02:12:02.353Z,72.23
2023-04-23T02:14:29.970Z,71.86
2023-04-23T02:16:57.989Z,72.57
2023-04-23T02:19:25.562Z,72.50
2023-04-23T02:21:53.159Z,72.61
2023-04-23T02:24:20.763Z,72.67
2023-04-23T02:26:49.374Z,72.54
2023-04-23T02:29:16.961Z,72.28
2023-04-23T02:31:44.672Z,72.37
2023-04-23T02:34:12.308Z,72.26
2023-04-23T02:36:39.926Z,72.76
2023-04-23T02:39:12.765Z,72.46
2023-04-23T02:41:40.397Z,72.55
2023-04-23T02:44:08.026Z,72.87
2023-04-23T02:46:37.484Z,72.51
2023-04-23T02:49:05.128Z,72.77
2023-04-23T02:51:33.006Z,72.64
2023-04-23T02:54:00.922Z,73.16
2023-04-23T02:56:28.479Z,72.74
2023-04-23T02:58:56.006Z,73.40
2023-04-23T03:01:23.672Z,73.06
2023-04-23T03:03:51.837Z,73.23
2023-04-23T03:06:19.546Z,73.58
2023-04-23T03:08:47.202Z,73.22
2023-04-23T03:11:14.734Z,73.86
2023-04-23T03:13:42.383Z,73.27
2023-04-23T03:16:10.275Z,73.57
2023-04-23T03:18:37.947Z,73.74
2023-04-23T03:21:06.032Z,73.51
2023-04-23T03:23:33.618Z,73.36
2023-04-23T03:26:01.231Z,73.44
2023-04-23T03:28:29.113Z,73.42
2023-04-23T03:30:56.777Z,73.58
2023-04-23T03:33:24.339Z,73.67
2023-04-23T03:35:51.909Z,73.21
2023-04-23T03:38:19.474Z,73.40
2023-04-23T03:40:47.606Z,73.54
2023-04-23T03:43:15.683Z,73.81
2023-04-23T03:45:43.415Z,73.86
2023-04-23T03:48:11.051Z,73.68
2023-04-23T03:50:40.574Z,73.88
2023-04-23T03:53:10.406Z,73.95
2023-04-23T03:55:37.994Z,74.10
2023-04-23T03:58:05.574Z,74.20
2023-04-23T04:00:33.216Z,74.23
2023-04-23T04:03:02.329Z,74.24
2023-04-23T04:05:31.485Z,73.91
2023-04-23T04:07:59.123Z,73.83
2023-04-23T04:10:26.870Z,73.91
2023-04-23T04:12:55.415Z,73.62
2023-04-23T04:15:23.010Z,73.92
2023-04-23T04:17:51.206Z,73.98
2023-04-23T04:20:18.891Z,73.97
2023-04-23T04:22:46.933Z,73.74
2023-04-23T04:25:14.501Z,74.03
2023-04-23T04:27:43.813Z,74.19
2023-04-23T04:30:11.961Z,74.01
2023-04-23T04:32:40.621Z,73.74
2023-04-23T04:35:09.003Z,73.83
2023-04-23T04:37:36.623Z,73.82
2023-04-23T04:40:05.184Z,73.69
2023-04-23T04:42:32.992Z,73.34
2023-04-23T04:45:00.947Z,73.31
2023-04-23T04:47:28.515Z,72.96
2023-04-23T04:49:57.942Z,72.84
2023-04-23T04:52:25.682Z,72.86
2023-04-23T04:54:53.583Z,72.27
2023-04-23T04:57:22.975Z,72.44
2023-04-23T04:59:50.576Z,72.28
2023-04-23T05:02:18.242Z,72.42
2023-04-23T05:04:45.875Z,72.01
2023-04-23T05:07:13.800Z,72.14
2023-04-23T05:09:42.930Z,71.82
2023-04-23T05:12:12.408Z,72.40
2023-04-23T05:14:40.364Z,71.97
2023-04-23T05:17:08.141Z,72.40
2023-04-23T05:19:36.062Z,72.28
2023-04-23T05:22:04.018Z,72.53
2023-04-23T05:24:31.602Z,72.66
2023-04-23T05:26:59.175Z,73.15
2023-04-23T05:29:26.971Z,72.83
2023-04-23T05:31:55.156Z,73.27
2023-04-23T05:34:22.789Z,72.86
2023-04-23T05:36:50.413Z,72.81
2023-04-23T05:39:17.972Z,72.63
2023-04-23T05:41:45.536Z,72.09
2023-04-23T05:44:13.769Z,71.98
2023-04-23T05:46:41.338Z,71.94
2023-04-23T05:49:08.863Z,71.52
2023-04-23T05:51:36.498Z,70.95
2023-04-23T05:54:04.068Z,70.88
2023-04-23T05:56:32.873Z,70.97
2023-04-23T05:59:00.475Z,70.36
2023-04-23T06:01:28.838Z,70.15
2023-04-23T06:03:56.672Z,69.59
2023-04-23T06:06:24.474Z,69.54
2023-04-23T06:08:52.738Z,68.93
2023-04-23T06:11:21.426Z,68.86
2023-04-23T06:13:49.016Z,68.33
2023-04-23T06:16:16.642Z,67.88
2023-04-23T06:18:44.663Z,67.89
2023-04-23T06:21:13.091Z,67.92
2023-04-23T06:23:40.721Z,67.85
2023-04-23T06:26:08.354Z,68.26
2023-04-23T06:28:35.978Z,68.14
2023-04-23T06:31:03.993Z,67.78
2023-04-23T06:33:32.224Z,67.58
2023-04-23T06:35:59.987Z,67.55
2023-04-23T06:38:27.695Z,67.48
2023-04-23T06:40:55.825Z,67.14
2023-04-23T06:43:23.473Z,66.79
2023-04-23T06:45:51.302Z,66.47
2023-04-23T06:48:19.001Z,67.08
2023-04-23T06:50:47.714Z,66.48
2023-04-23T06:53:15.400Z,66.35
2023-04-23T06:55:43.040Z,65.85
2023-04-23T06:58:13.603Z,66.25
2023-04-23T07:00:41.930Z,65.32
2023-04-23T07:03:09.717Z,65.36
2023-04-23T07:05:37.538Z,65.18
2023-04-23T07:08:05.852Z,65.29
2023-04-23T07:10:34.366Z,65.35
2023-04-23T07:13:02.069Z,65.69
2023-04-23T07:15:29.821Z,65.18
2023-04-23T07:17:57.579Z,64.91
2023-04-23T07:20:25.363Z,65.30
2023-04-23T07:22:53.798Z,65.34
2023-04-23T07:25:22.729Z,65.08
2023-04-23T07:27:50.557Z,65.42
2023-04-23T07:30:18.223Z,65.41
2023-04-23T07:32:45.894Z,65.28
2023-04-23T07:35:14.246Z,65.06
2023-04-23T07:37:41.916Z,65.51
2023-04-23T07:40:09.610Z,65.33
2023-04-23T07:42:37.783Z,65.67
2023-04-23T07:45:06.205Z,65.34
2023-04-23T07:47:36.225Z,65.82
2023-04-23T07:50:04.056Z,65.98
2023-04-23T07:52:31.706Z,65.55
2023-04-23T07:54:59.498Z,65.84
2023-04-23T07:57:27.266Z,65.12
2023-04-23T07:59:54.928Z,64.71
2023-04-23T08:02:26.323Z,64.95
2023-04-23T08:04:54.379Z,64.99
2023-04-23T08:07:22.373Z,64.70
2023-04-23T08:09:50.707Z,64.51
2023-04-23T08:12:19.369Z,64.42
2023-04-23T08:14:47.639Z,64.17
2023-04-23T08:17:15.313Z,64.64
2023-04-23T08:19:43.352Z,64.32
2023-04-23T08:22:11.733Z,63.91
2023-04-23T08:24:39.756Z,64.16
2023-04-23T08:27:07.928Z,64.36
2023-04-23T08:29:35.869Z,64.24
2023-04-23T08:32:04.026Z,63.61
2023-04-23T08:34:32.349Z,63.58
2023-04-23T08:37:01.649Z,63.08
2023-04-23T08:39:30.825Z,63.36
2023-04-23T08:41:58.634Z,62.92
2023-04-23T08:44:26.446Z,62.80
2023-04-23T08:46:54.334Z,62.54
2023-04-23T08:49:22.610Z,61.38
2023-04-23T08:51:50.255Z,61.74
2023-04-23T08:54:18.439Z,61.24
2023-04-23T08:56:46.268Z,60.85
2023-04-23T08:59:14.063Z,60.86
2023-04-23T09:01:42.511Z,60.21
2023-04-23T09:04:10.464Z,59.67
2023-04-23T09:06:38.284Z,59.77
2023-04-23T09:09:07.440Z,58.87
2023-04-23T09:11:35.499Z,58.89
2023-04-23T09:14:03.442Z,59.14
2023-04-23T09:16:31.676Z,59.05
2023-04-23T09:18:59.582Z,58.31
2023-04-23T09:21:27.305Z,58.08
2023-04-23T09:23:55.196Z,58.47
2023-04-23T09:26:23.692Z,57.47
2023-04-23T09:28:51.873Z,57.30
2023-04-23T09:31:19.662Z,57.27
2023-04-23T09:33:47.546Z,57.44
2023-04-23T09:36:15.377Z,57.81
2023-04-23T09:38:45.037Z,58.04
2023-04-23T09:41:12.803Z,57.82
2023-04-23T09:43:40.627Z,57.88
2023-04-23T09:46:08.510Z,57.12
2023-04-23T09:48:36.358Z,56.20
2023-04-23T09:51:04.580Z,55.67
2023-04-23T09:53:32.339Z,54.91
2023-04-23T09:56:00.134Z,53.76
2023-04-23T09:58:29.003Z,52.55
2023-04-23T10:00:56.978Z,51.38
2023-04-23T10:03:25.284Z,50.80
2023-04-23T10:06:01.212Z,50.26
2023-04-23T10:08:29.981Z,48.87
2023-04-23T10:11:06.636Z,47.94
2023-04-23T10:13:46.445Z,48.25
2023-04-23T10:16:21.775Z,47.74
2023-04-23T10:18:51.012Z,47.41
2023-04-23T10:21:19.068Z,47.45
2023-04-23T10:23:47.828Z,47.60
2023-04-23T10:26:15.584Z,47.16
2023-04-23T10:28:43.337Z,47.47
2023-04-23T10:31:11.235Z,48.07
2023-04-23T10:33:49.379Z,49.70
2023-04-23T10:36:25.821Z,49.97
2023-04-23T10:38:58.253Z,50.10
2023-04-23T10:41:28.313Z,50.09
2023-04-23T10:43:56.370Z,50.10
2023-04-23T10:46:24.508Z,49.66
2023-04-23T10:48:52.439Z,49.21
2023-04-23T10:53:59.731Z,50.41
2023-04-23T10:56:27.823Z,50.60
2023-04-23T10:58:56.320Z,50.23
2023-04-23T11:01:24.194Z,49.64
2023-04-23T11:03:52.304Z,49.73
2023-04-23T11:06:20.223Z,50.23
2023-04-23T11:08:48.863Z,50.14
2023-04-23T11:11:17.812Z,50.41
2023-04-23T11:13:45.565Z,50.82
2023-04-23T11:16:13.501Z,50.52
2023-04-23T11:18:41.490Z,50.94
2023-04-23T11:21:09.218Z,50.52
2023-04-23T11:23:37.931Z,50.61
2023-04-23T11:26:05.858Z,50.89
2023-04-23T11:28:33.681Z,50.57
2023-04-23T11:31:01.621Z,49.32
2023-04-23T11:33:29.624Z,49.14
2023-04-23T11:35:57.841Z,48.20
2023-04-23T11:38:25.709Z,48.30
2023-04-23T11:40:54.256Z,48.23
2023-04-23T11:43:22.894Z,46.65
2023-04-23T11:45:52.546Z,46.23
2023-04-23T11:48:20.715Z,45.60
2023-04-23T11:50:48.783Z,45.48
2023-04-23T11:53:16.879Z,46.84
2023-04-23T11:55:46.136Z,47.27
2023-04-23T11:58:14.242Z,47.78
2023-04-23T12:00:42.254Z,48.66
2023-04-23T12:03:10.286Z,49.24
2023-04-23T12:05:38.415Z,49.08
2023-04-23T12:08:06.690Z,49.62
2023-04-23T12:10:34.820Z,49.67
2023-04-23T12:13:02.576Z,49.60
2023-04-23T12:15:30.782Z,50.28
2023-04-23T12:17:58.779Z,50.37
2023-04-23T12:20:26.603Z,50.98
2023-04-23T12:22:55.177Z,50.57
2023-04-23T12:25:23.524Z,50.39
2023-04-23T12:27:51.563Z,50.25
2023-04-23T12:30:19.509Z,50.31
2023-04-23T12:32:47.486Z,49.81
2023-04-23T12:35:15.917Z,49.39
2023-04-23T12:37:44.358Z,49.04
2023-04-23T12:40:12.266Z,49.40
2023-04-23T12:42:40.200Z,49.67
2023-04-23T12:45:08.670Z,49.72
2023-04-23T12:47:37.195Z,49.35
2023-04-23T12:50:06.260Z,48.48
2023-04-23T12:52:34.108Z,47.62
2023-04-23T12:55:02.011Z,46.11
2023-04-23T12:57:30.025Z,45.21
2023-04-23T12:59:57.945Z,43.97
2023-04-23T13:02:26.454Z,43.04
2023-04-23T13:05:01.154Z,42.95
2023-04-23T13:07:29.416Z,42.77
2023-04-23T13:09:57.458Z,43.22
2023-04-23T13:12:27.297Z,43.63
2023-04-23T13:14:55.231Z,43.88
2023-04-23T13:17:23.447Z,43.57
2023-04-23T13:19:51.570Z,43.59
2023-04-23T13:22:19.387Z,43.36
2023-04-23T13:24:48.034Z,42.93
2023-04-23T13:27:15.985Z,43.42
2023-04-23T13:29:44.174Z,43.14
2023-04-23T13:32:12.466Z,42.67
2023-04-23T13:34:40.903Z,42.14
2023-04-23T13:37:09.647Z,42.15
2023-04-23T13:39:39.989Z,41.77
2023-04-23T13:42:10.209Z,40.97
2023-04-23T13:44:38.475Z,41.50
2023-04-23T13:47:06.334Z,40.82
2023-04-23T13:49:34.464Z,40.54
2023-04-23T13:52:07.256Z,41.29
2023-04-23T13:54:35.916Z,42.08
2023-04-23T13:57:04.122Z,42.21
2023-04-23T13:59:32.138Z,42.41
2023-04-23T14:02:00.498Z,42.02
2023-04-23T14:04:28.555Z,40.97
2023-04-23T14:06:56.486Z,40.54
2023-04-23T14:09:24.318Z,40.25
2023-04-23T14:11:52.213Z,40.56
2023-04-23T14:14:21.166Z,40.76
2023-04-23T14:16:49.822Z,41.18
2023-04-23T14:19:18.255Z,40.90
2023-04-23T14:21:46.165Z,40.28
2023-04-23T14:24:13.971Z,39.90
2023-04-23T14:29:14.212Z,39.88
2023-04-23T14:31:42.100Z,39.89
2023-04-23T14:34:10.061Z,40.12
2023-04-23T14:36:38.037Z,40.67
2023-04-23T14:39:08.088Z,40.36
2023-04-23T14:41:36.244Z,41.19
2023-04-23T14:44:04.213Z,41.18
2023-04-23T14:46:32.167Z,41.77
2023-04-23T14:49:00.105Z,41.98
2023-04-23T14:51:29.421Z,42.57
2023-04-23T14:53:57.426Z,42.54
2023-04-23T14:56:25.142Z,42.67
2023-04-23T14:58:52.978Z,42.62
2023-04-23T15:01:20.939Z,43.24
2023-04-23T15:03:49.467Z,42.90
2023-04-23T15:06:17.488Z,43.11
2023-04-23T15:08:45.360Z,43.68
2023-04-23T15:11:14.559Z,43.54
2023-04-23T15:13:42.602Z,44.31
2023-04-23T15:16:11.541Z,44.48
2023-04-23T15:18:39.383Z,44.41
2023-04-23T15:21:07.594Z,44.35
2023-04-23T15:23:35.356Z,44.55
2023-04-23T15:26:03.404Z,44.78
2023-04-23T15:28:32.202Z,44.27
2023-04-23T15:31:00.059Z,44.64
2023-04-23T15:33:27.972Z,44.99
2023-04-23T15:35:58.159Z,45.01
2023-04-23T15:38:27.549Z,45.15
2023-04-23T15:40:55.849Z,45.44
2023-04-23T15:43:24.112Z,45.56
2023-04-23T15:45:53.422Z,46.11
2023-04-23T15:48:21.422Z,45.57
2023-04-23T15:50:49.376Z,45.60
2023-04-23T15:53:17.757Z,45.72
2023-04-23T15:55:45.652Z,46.46
2023-04-23T15:58:13.532Z,46.09
2023-04-23T16:00:41.318Z,46.46
2023-04-23T16:03:09.377Z,46.42
2023-04-23T16:05:39.052Z,46.74
2023-04-23T16:08:06.893Z,46.38
2023-04-23T16:10:34.902Z,46.70
2023-04-23T16:13:02.849Z,46.63
2023-04-23T16:15:30.680Z,47.29
2023-04-23T16:18:00.361Z,46.68
2023-04-23T16:20:28.709Z,47.41
2023-04-23T16:22:56.499Z,47.00
2023-04-23T16:25:24.434Z,47.07
2023-04-23T16:27:52.791Z,47.41
2023-04-23T16:30:21.673Z,47.51
2023-04-23T16:32:49.751Z,47.75
2023-04-23T16:35:17.897Z,47.53
2023-04-23T16:37:45.730Z,47.64
2023-04-23T16:40:15.466Z,47.62
2023-04-23T16:42:44.074Z,47.30
2023-04-23T16:45:11.964Z,48.03
2023-04-23T16:47:39.917Z,47.87
2023-04-23T16:50:08.145Z,48.46
2023-04-23T16:52:36.063Z,48.34
2023-04-23T16:55:04.444Z,48.25
2023-04-23T16:57:32.726Z,48.74
2023-04-23T17:00:00.867Z,48.28
2023-04-23T17:02:29.192Z,48.97
2023-04-23T17:04:57.324Z,48.70
2023-04-23T17:07:25.322Z,48.75
2023-04-23T17:09:53.270Z,49.20
2023-04-23T17:12:22.064Z,49.43
2023-04-23T17:20:48.154Z,50.64
2023-04-23T17:23:16.091Z,50.92
2023-04-23T17:25:44.011Z,51.92
2023-04-23T17:28:11.942Z,53.20
2023-04-23T17:30:39.839Z,53.76
2023-04-23T17:33:10.222Z,54.36
2023-04-23T17:35:38.085Z,55.38
2023-04-23T17:38:05.939Z,55.34
2023-04-23T17:40:33.758Z,56.98
2023-04-23T17:43:01.948Z,57.33
2023-04-23T17:45:30.494Z,57.64
2023-04-23T17:47:58.409Z,58.53
2023-04-23T17:50:28.625Z,58.80
2023-04-23T17:52:56.440Z,59.11
2023-04-23T17:55:25.004Z,59.47
2023-04-23T17:57:53.869Z,59.67
2023-04-23T18:00:22.063Z,59.99
2023-04-23T18:02:50.127Z,60.04
2023-04-23T18:05:18.038Z,60.08
2023-04-23T18:07:45.897Z,60.13
2023-04-23T18:10:14.878Z,60.10
2023-04-23T18:12:42.868Z,60.20
2023-04-23T18:15:12.562Z,60.51
2023-04-23T18:17:42.324Z,60.75
2023-04-23T18:20:10.754Z,61.06
2023-04-23T18:22:39.151Z,60.62
2023-04-23T18:25:07.764Z,61.14
2023-04-23T18:27:35.850Z,61.35
2023-04-23T18:30:05.797Z,61.90
2023-04-23T18:32:34.770Z,61.27
2023-04-23T18:35:04.910Z,62.15
2023-04-23T18:37:33.232Z,61.41
2023-04-23T18:40:01.469Z,61.82
2023-04-23T18:42:29.398Z,62.20
2023-04-23T18:44:57.302Z,61.63
2023-04-23T18:47:25.175Z,61.92
2023-04-23T18:49:53.266Z,62.51
2023-04-23T18:52:21.213Z,62.90
2023-04-23T18:54:49.252Z,62.91
2023-04-23T18:57:17.150Z,63.87
2023-04-23T18:59:45.353Z,63.69
2023-04-23T19:02:21.444Z,63.94
2023-04-23T19:04:56.504Z,63.53
2023-04-23T19:07:24.418Z,64.49
2023-04-23T19:09:52.908Z,64.83
2023-04-23T19:12:20.813Z,65.31
2023-04-23T19:14:48.727Z,64.99
2023-04-23T19:17:18.634Z,65.43
2023-04-23T19:19:46.718Z,65.29
2023-04-23T19:22:15.087Z,65.22
2023-04-23T19:24:42.932Z,65.14
2023-04-23T19:27:10.954Z,65.96
2023-04-23T19:29:38.857Z,66.07
2023-04-23T19:32:06.913Z,66.38
2023-04-23T19:34:35.469Z,66.57
2023-04-23T19:37:03.480Z,66.24
2023-04-23T19:39:31.346Z,66.83
2023-04-23T19:41:59.239Z,66.59
2023-04-23T19:44:27.414Z,66.32
2023-04-23T19:46:56.057Z,66.73
2023-04-23T19:49:23.952Z,66.57
2023-04-23T19:51:51.770Z,66.31
2023-04-23T19:54:19.550Z,66.46
2023-04-23T19:56:47.515Z,66.91
2023-04-23T19:59:17.808Z,67.17
2023-04-23T20:01:45.614Z,67.04
2023-04-23T20:04:13.738Z,67.43
2023-04-23T20:06:42.009Z,67.07
2023-04-23T20:09:18.801Z,67.51
2023-04-23T20:11:46.868Z,67.93
2023-04-23T20:14:14.651Z,67.91
2023-04-23T20:16:42.608Z,68.02
2023-04-23T20:19:11.304Z,68.04
2023-04-23T20:21:40.055Z,68.20
2023-04-23T20:24:08.793Z,68.17
2023-04-23T20:26:36.611Z,68.04
2023-04-23T20:29:04.512Z,68.46
2023-04-23T20:31:32.513Z,68.37
2023-04-23T20:34:00.608Z,68.62
2023-04-23T20:36:31.678Z,68.37
2023-04-23T20:38:59.678Z,69.06
2023-04-23T20:41:27.416Z,68.81
2023-04-23T20:43:55.262Z,69.01
2023-04-23T20:46:24.152Z,69.25
2023-04-23T20:48:54.629Z,69.15
2023-04-23T20:51:22.316Z,69.18
2023-04-23T20:53:50.252Z,69.72
2023-04-23T20:56:18.017Z,69.21
2023-04-23T20:58:46.255Z,69.08
2023-04-23T21:01:14.743Z,68.98
2023-04-23T21:03:42.743Z,69.49
2023-04-23T21:06:10.735Z,69.25
2023-04-23T21:08:41.485Z,69.96
2023-04-23T21:11:11.959Z,69.83
2023-04-23T21:13:39.860Z,70.23
2023-04-23T21:16:07.843Z,70.17
2023-04-23T21:18:35.757Z,70.04
2023-04-23T21:21:03.552Z,69.77
2023-04-23T21:23:31.952Z,70.06
2023-04-23T21:26:00.106Z,70.09
2023-04-23T21:28:28.052Z,70.41
2023-04-23T21:30:55.843Z,69.88
2023-04-23T21:33:24.032Z,69.94
2023-04-23T21:35:51.954Z,69.82
2023-04-23T21:38:19.721Z,69.55
2023-04-23T21:40:47.436Z,69.37
2023-04-23T21:43:15.306Z,69.06
2023-04-23T21:45:43.014Z,68.98
2023-04-23T21:48:11.107Z,68.65
2023-04-23T21:50:39.266Z,68.44
2023-04-23T21:53:07.351Z,68.34
2023-04-23T21:55:35.446Z,67.61
2023-04-23T21:58:16.383Z,66.83
2023-04-23T22:00:46.149Z,67.12
2023-04-23T22:03:25.606Z,66.62
2023-04-23T22:06:02.910Z,66.89
2023-04-23T22:08:30.685Z,66.82
2023-04-23T22:10:59.540Z,67.03
2023-04-23T22:13:27.374Z,66.68
2023-04-23T22:15:57.482Z,67.02
2023-04-23T22:18:25.228Z,66.49
2023-04-23T22:20:53.245Z,66.96
2023-04-23T22:23:22.240Z,66.98
2023-04-23T22:25:49.961Z,66.87
2023-04-23T22:28:17.672Z,67.06
2023-04-23T22:30:45.430Z,67.29
2023-04-23T22:33:13.083Z,66.94
2023-04-23T22:35:41.196Z,67.11
2023-04-23T22:38:12.676Z,67.13
2023-04-23T22:40:40.322Z,67.15
2023-04-23T22:43:07.950Z,66.68
2023-04-23T22:45:35.891Z,66.78
2023-04-23T22:48:04.763Z,66.57
2023-04-23T22:50:32.500Z,66.95
2023-04-23T22:53:00.134Z,66.70
2023-04-23T22:55:27.782Z,66.69
2023-04-23T22:57:55.443Z,66.57
2023-04-23T23:00:24.908Z,66.73
2023-04-23T23:02:53.083Z,66.87
2023-04-23T23:05:21.176Z,66.71
2023-04-23T23:07:50.326Z,67.03
2023-04-23T23:10:17.902Z,66.63
2023-04-23T23:12:45.875Z,66.62
2023-04-23T23:15:13.505Z,66.23
2023-04-23T23:17:41.309Z,66.00
2023-04-23T23:20:09.367Z,66.72
2023-04-23T23:22:37.586Z,66.46
2023-04-23T23:25:06.980Z,66.35
2023-04-23T23:27:34.632Z,66.27
2023-04-23T23:30:05.816Z,66.78
2023-04-23T23:32:33.554Z,66.83
2023-04-23T23:35:01.562Z,66.33
2023-04-23T23:37:29.754Z,66.57
2023-04-23T23:39:57.336Z,66.73
2023-04-23T23:42:25.047Z,66.84
2023-04-23T23:44:52.904Z,66.67
2023-04-23T23:47:20.559Z,66.59
2023-04-23T23:49:48.873Z,67.03
2023-04-23T23:52:16.520Z,66.72
2023-04-23T23:54:44.092Z,67.12
2023-04-23T23:57:12.095Z,66.93
2023-04-23T23:59:39.777Z,66.99
